sensor_id;sensor_type;location;lat;lon;timestamp;pressure;altitude;pressure_sealevel;temperature;humidity
64876;BME280;51369;49.862;9.908;2022-08-03T00:01:58;98389.53;;;19.67;52.29
64876;BME280;51369;49.862;9.908;2022-08-03T00:04:23;98380.31;;;19.68;51.35
64876;BME280;51369;49.862;9.908;2022-08-03T00:06:49;98375.72;;;19.68;50.82
64876;BME280;51369;49.862;9.908;2022-08-03T00:09:15;98383.69;;;19.71;51.34
64876;BME280;51369;49.862;9.908;2022-08-03T00:11:40;98387.31;;;19.72;51.73
64876;BME280;51369;49.862;9.908;2022-08-03T00:14:06;98386.19;;;19.74;52.02
64876;BME280;51369;49.862;9.908;2022-08-03T00:16:32;98379.72;;;19.75;52.06
64876;BME280;51369;49.862;9.908;2022-08-03T00:18:58;98385.31;;;19.74;52.53
64876;BME280;51369;49.862;9.908;2022-08-03T00:21:23;98385.69;;;19.69;52.82
64876;BME280;51369;49.862;9.908;2022-08-03T00:23:48;98384.31;;;19.64;53.25
64876;BME280;51369;49.862;9.908;2022-08-03T00:26:14;98378.31;;;19.59;53.12
64876;BME280;51369;49.862;9.908;2022-08-03T00:28:40;98387.09;;;19.51;53.73
64876;BME280;51369;49.862;9.908;2022-08-03T00:31:06;98384.97;;;19.43;53.96
64876;BME280;51369;49.862;9.908;2022-08-03T00:33:32;98391.06;;;19.36;54.71
64876;BME280;51369;49.862;9.908;2022-08-03T00:35:57;98384.31;;;19.29;54.63
64876;BME280;51369;49.862;9.908;2022-08-03T00:38:23;98391.13;;;19.23;54.57
64876;BME280;51369;49.862;9.908;2022-08-03T00:40:48;98386.13;;;19.17;54.35
64876;BME280;51369;49.862;9.908;2022-08-03T00:43:13;98391.09;;;19.12;54.74
64876;BME280;51369;49.862;9.908;2022-08-03T00:45:40;98385.25;;;19.05;55.38
64876;BME280;51369;49.862;9.908;2022-08-03T00:48:10;98383.09;;;18.98;55.14
64876;BME280;51369;49.862;9.908;2022-08-03T00:50:39;98383.34;;;18.95;55.41
64876;BME280;51369;49.862;9.908;2022-08-03T00:53:06;98386.53;;;18.89;55.93
64876;BME280;51369;49.862;9.908;2022-08-03T00:55:33;98386.03;;;18.83;55.55
64876;BME280;51369;49.862;9.908;2022-08-03T00:58:01;98383.75;;;18.77;55.47
64876;BME280;51369;49.862;9.908;2022-08-03T01:00:32;98389.69;;;18.71;55.59
64876;BME280;51369;49.862;9.908;2022-08-03T01:02:57;98382.81;;;18.66;56.34
64876;BME280;51369;49.862;9.908;2022-08-03T01:05:23;98389.59;;;18.60;55.80
64876;BME280;51369;49.862;9.908;2022-08-03T01:08:29;98382.19;;;18.49;55.92
64876;BME280;51369;49.862;9.908;2022-08-03T01:16:06;98381.69;;;18.32;55.46
64876;BME280;51369;49.862;9.908;2022-08-03T01:18:48;98386.19;;;18.20;55.13
64876;BME280;51369;49.862;9.908;2022-08-03T01:21:26;98375.84;;;18.12;55.65
64876;BME280;51369;49.862;9.908;2022-08-03T01:24:01;98376.50;;;18.03;55.89
64876;BME280;51369;49.862;9.908;2022-08-03T01:29:20;98382.09;;;17.89;56.55
64876;BME280;51369;49.862;9.908;2022-08-03T01:31:56;98388.00;;;17.83;56.40
64876;BME280;51369;49.862;9.908;2022-08-03T01:34:28;98378.94;;;17.82;56.50
64876;BME280;51369;49.862;9.908;2022-08-03T01:36:56;98378.06;;;17.82;56.55
64876;BME280;51369;49.862;9.908;2022-08-03T01:39:24;98374.13;;;17.86;57.35
64876;BME280;51369;49.862;9.908;2022-08-03T01:41:55;98366.69;;;17.88;57.17
64876;BME280;51369;49.862;9.908;2022-08-03T01:44:27;98382.09;;;17.89;57.57
64876;BME280;51369;49.862;9.908;2022-08-03T01:46:57;98371.28;;;17.87;57.56
64876;BME280;51369;49.862;9.908;2022-08-03T01:49:25;98371.41;;;17.86;57.58
64876;BME280;51369;49.862;9.908;2022-08-03T01:51:52;98372.38;;;17.85;57.50
64876;BME280;51369;49.862;9.908;2022-08-03T01:54:19;98366.25;;;17.81;57.62
64876;BME280;51369;49.862;9.908;2022-08-03T01:56:47;98367.25;;;17.80;58.19
64876;BME280;51369;49.862;9.908;2022-08-03T01:59:16;98368.44;;;17.76;57.57
64876;BME280;51369;49.862;9.908;2022-08-03T02:01:43;98364.09;;;17.74;57.68
64876;BME280;51369;49.862;9.908;2022-08-03T02:04:09;98371.50;;;17.72;57.78
64876;BME280;51369;49.862;9.908;2022-08-03T02:06:37;98369.00;;;17.69;58.08
64876;BME280;51369;49.862;9.908;2022-08-03T02:09:05;98364.81;;;17.63;58.64
64876;BME280;51369;49.862;9.908;2022-08-03T02:11:33;98375.09;;;17.60;59.08
64876;BME280;51369;49.862;9.908;2022-08-03T02:14:01;98363.50;;;17.56;58.83
64876;BME280;51369;49.862;9.908;2022-08-03T02:16:30;98368.22;;;17.54;58.54
64876;BME280;51369;49.862;9.908;2022-08-03T02:18:57;98368.53;;;17.49;58.20
64876;BME280;51369;49.862;9.908;2022-08-03T02:21:26;98356.31;;;17.42;57.81
64876;BME280;51369;49.862;9.908;2022-08-03T02:23:52;98366.78;;;17.36;57.95
64876;BME280;51369;49.862;9.908;2022-08-03T02:26:19;98356.97;;;17.33;59.17
64876;BME280;51369;49.862;9.908;2022-08-03T02:28:47;98353.25;;;17.34;59.00
64876;BME280;51369;49.862;9.908;2022-08-03T02:31:19;98354.97;;;17.35;59.04
64876;BME280;51369;49.862;9.908;2022-08-03T02:33:50;98358.69;;;17.34;58.62
64876;BME280;51369;49.862;9.908;2022-08-03T02:36:21;98354.38;;;17.32;59.37
64876;BME280;51369;49.862;9.908;2022-08-03T02:38:51;98357.31;;;17.29;59.03
64876;BME280;51369;49.862;9.908;2022-08-03T02:41:23;98354.78;;;17.26;59.48
64876;BME280;51369;49.862;9.908;2022-08-03T02:43:53;98351.50;;;17.20;59.44
64876;BME280;51369;49.862;9.908;2022-08-03T02:46:23;98363.50;;;17.18;59.60
64876;BME280;51369;49.862;9.908;2022-08-03T02:48:51;98352.03;;;17.13;59.82
64876;BME280;51369;49.862;9.908;2022-08-03T02:51:18;98356.06;;;17.07;59.93
64876;BME280;51369;49.862;9.908;2022-08-03T02:53:46;98364.34;;;17.06;60.75
64876;BME280;51369;49.862;9.908;2022-08-03T02:56:12;98358.44;;;16.99;60.73
64876;BME280;51369;49.862;9.908;2022-08-03T02:58:41;98356.47;;;16.88;60.29
64876;BME280;51369;49.862;9.908;2022-08-03T03:01:08;98355.13;;;16.81;59.85
64876;BME280;51369;49.862;9.908;2022-08-03T03:03:34;98357.41;;;16.75;60.40
64876;BME280;51369;49.862;9.908;2022-08-03T03:06:02;98353.81;;;16.74;60.83
64876;BME280;51369;49.862;9.908;2022-08-03T03:08:28;98360.25;;;16.73;60.41
64876;BME280;51369;49.862;9.908;2022-08-03T03:10:56;98356.63;;;16.73;60.55
64876;BME280;51369;49.862;9.908;2022-08-03T03:13:23;98354.78;;;16.73;61.26
64876;BME280;51369;49.862;9.908;2022-08-03T03:15:51;98362.19;;;16.71;60.55
64876;BME280;51369;49.862;9.908;2022-08-03T03:18:17;98354.31;;;16.67;59.62
64876;BME280;51369;49.862;9.908;2022-08-03T03:20:44;98352.75;;;16.63;60.90
64876;BME280;51369;49.862;9.908;2022-08-03T03:23:10;98352.75;;;16.63;61.49
64876;BME280;51369;49.862;9.908;2022-08-03T03:25:36;98350.13;;;16.61;60.92
64876;BME280;51369;49.862;9.908;2022-08-03T03:28:03;98361.03;;;16.61;61.67
64876;BME280;51369;49.862;9.908;2022-08-03T03:30:29;98348.38;;;16.60;61.63
64876;BME280;51369;49.862;9.908;2022-08-03T03:32:56;98356.56;;;16.60;61.50
64876;BME280;51369;49.862;9.908;2022-08-03T03:35:22;98362.97;;;16.59;61.68
64876;BME280;51369;49.862;9.908;2022-08-03T03:37:47;98361.25;;;16.58;61.93
64876;BME280;51369;49.862;9.908;2022-08-03T03:40:13;98363.19;;;16.56;61.70
64876;BME280;51369;49.862;9.908;2022-08-03T03:42:39;98364.28;;;16.53;61.62
64876;BME280;51369;49.862;9.908;2022-08-03T03:45:06;98357.06;;;16.52;62.09
64876;BME280;51369;49.862;9.908;2022-08-03T03:47:35;98357.19;;;16.51;61.79
64876;BME280;51369;49.862;9.908;2022-08-03T03:50:04;98361.84;;;16.49;61.86
64876;BME280;51369;49.862;9.908;2022-08-03T03:52:31;98361.97;;;16.47;61.95
64876;BME280;51369;49.862;9.908;2022-08-03T03:54:57;98357.69;;;16.43;62.29
64876;BME280;51369;49.862;9.908;2022-08-03T03:57:22;98359.75;;;16.40;61.71
64876;BME280;51369;49.862;9.908;2022-08-03T03:59:48;98365.59;;;16.34;61.97
64876;BME280;51369;49.862;9.908;2022-08-03T04:02:13;98375.06;;;16.28;60.99
64876;BME280;51369;49.862;9.908;2022-08-03T04:04:39;98367.06;;;16.25;62.44
64876;BME280;51369;49.862;9.908;2022-08-03T04:07:25;98369.03;;;16.23;62.39
64876;BME280;51369;49.862;9.908;2022-08-03T04:10:17;98369.22;;;16.20;61.37
64876;BME280;51369;49.862;9.908;2022-08-03T04:13:07;98367.19;;;16.23;62.19
64876;BME280;51369;49.862;9.908;2022-08-03T04:15:36;98369.69;;;16.26;62.45
64876;BME280;51369;49.862;9.908;2022-08-03T04:18:02;98367.66;;;16.30;62.50
64876;BME280;51369;49.862;9.908;2022-08-03T04:20:30;98371.06;;;16.34;62.63
64876;BME280;51369;49.862;9.908;2022-08-03T04:22:58;98375.41;;;16.36;62.75
64876;BME280;51369;49.862;9.908;2022-08-03T04:25:28;98376.19;;;16.38;62.67
64876;BME280;51369;49.862;9.908;2022-08-03T04:27:56;98371.50;;;16.40;62.41
64876;BME280;51369;49.862;9.908;2022-08-03T04:30:27;98377.75;;;16.42;62.33
64876;BME280;51369;49.862;9.908;2022-08-03T04:32:55;98379.50;;;16.43;62.59
64876;BME280;51369;49.862;9.908;2022-08-03T04:35:23;98379.38;;;16.45;62.26
64876;BME280;51369;49.862;9.908;2022-08-03T04:37:50;98376.66;;;16.45;62.51
64876;BME280;51369;49.862;9.908;2022-08-03T04:40:24;98379.38;;;16.45;62.76
64876;BME280;51369;49.862;9.908;2022-08-03T04:42:53;98374.13;;;16.42;62.62
64876;BME280;51369;49.862;9.908;2022-08-03T04:45:20;98377.94;;;16.39;62.06
64876;BME280;51369;49.862;9.908;2022-08-03T04:47:47;98384.47;;;16.37;62.66
64876;BME280;51369;49.862;9.908;2022-08-03T04:50:14;98382.03;;;16.32;62.47
64876;BME280;51369;49.862;9.908;2022-08-03T04:52:40;98384.97;;;16.29;62.28
64876;BME280;51369;49.862;9.908;2022-08-03T04:55:06;98384.19;;;16.27;62.85
64876;BME280;51369;49.862;9.908;2022-08-03T04:57:31;98380.69;;;16.25;62.84
64876;BME280;51369;49.862;9.908;2022-08-03T04:59:57;98385.28;;;16.24;63.26
64876;BME280;51369;49.862;9.908;2022-08-03T05:02:22;98375.16;;;16.26;62.69
64876;BME280;51369;49.862;9.908;2022-08-03T05:04:48;98386.81;;;16.28;62.73
64876;BME280;51369;49.862;9.908;2022-08-03T05:07:15;98389.25;;;16.33;62.99
64876;BME280;51369;49.862;9.908;2022-08-03T05:09:41;98384.56;;;16.35;61.32
64876;BME280;51369;49.862;9.908;2022-08-03T05:12:06;98392.44;;;16.40;61.68
64876;BME280;51369;49.862;9.908;2022-08-03T05:14:33;98390.28;;;16.45;62.05
64876;BME280;51369;49.862;9.908;2022-08-03T05:16:59;98390.84;;;16.50;61.83
64876;BME280;51369;49.862;9.908;2022-08-03T05:19:24;98384.22;;;16.54;61.05
64876;BME280;51369;49.862;9.908;2022-08-03T05:21:50;98392.88;;;16.60;61.79
64876;BME280;51369;49.862;9.908;2022-08-03T05:24:15;98393.47;;;16.66;61.50
64876;BME280;51369;49.862;9.908;2022-08-03T05:26:41;98387.59;;;16.72;61.78
64876;BME280;51369;49.862;9.908;2022-08-03T05:29:06;98396.25;;;16.78;61.98
64876;BME280;51369;49.862;9.908;2022-08-03T05:31:31;98396.59;;;16.86;62.00
64876;BME280;51369;49.862;9.908;2022-08-03T05:33:57;98397.72;;;16.97;62.22
64876;BME280;51369;49.862;9.908;2022-08-03T05:36:22;98398.75;;;17.08;62.05
64876;BME280;51369;49.862;9.908;2022-08-03T05:38:48;98398.88;;;17.19;62.26
64876;BME280;51369;49.862;9.908;2022-08-03T05:41:13;98395.91;;;17.35;62.43
64876;BME280;51369;49.862;9.908;2022-08-03T05:43:39;98392.78;;;17.54;61.83
64876;BME280;51369;49.862;9.908;2022-08-03T05:46:05;98392.16;;;17.76;61.67
64876;BME280;51369;49.862;9.908;2022-08-03T05:48:30;98402.41;;;17.98;61.17
64876;BME280;51369;49.862;9.908;2022-08-03T05:50:56;98390.03;;;18.17;60.22
64876;BME280;51369;49.862;9.908;2022-08-03T05:53:22;98384.97;;;18.37;59.77
64876;BME280;51369;49.862;9.908;2022-08-03T05:55:48;98389.06;;;18.55;59.32
64876;BME280;51369;49.862;9.908;2022-08-03T05:58:13;98390.44;;;18.73;59.12
64876;BME280;51369;49.862;9.908;2022-08-03T06:00:38;98393.75;;;18.90;58.76
64876;BME280;51369;49.862;9.908;2022-08-03T06:03:04;98388.97;;;19.04;58.72
64876;BME280;51369;49.862;9.908;2022-08-03T06:05:30;98393.34;;;19.18;57.93
64876;BME280;51369;49.862;9.908;2022-08-03T06:07:55;98385.19;;;19.29;57.02
64876;BME280;51369;49.862;9.908;2022-08-03T06:10:21;98386.84;;;19.43;57.15
64876;BME280;51369;49.862;9.908;2022-08-03T06:12:46;98383.91;;;19.57;56.69
64876;BME280;51369;49.862;9.908;2022-08-03T06:15:14;98389.19;;;19.71;56.68
64876;BME280;51369;49.862;9.908;2022-08-03T06:17:49;98391.44;;;19.89;55.34
64876;BME280;51369;49.862;9.908;2022-08-03T06:20:19;98385.84;;;20.01;55.31
64876;BME280;51369;49.862;9.908;2022-08-03T06:22:48;98392.19;;;20.13;54.85
64876;BME280;51369;49.862;9.908;2022-08-03T06:25:13;98397.81;;;20.23;54.64
64876;BME280;51369;49.862;9.908;2022-08-03T06:27:39;98393.44;;;20.31;54.03
64876;BME280;51369;49.862;9.908;2022-08-03T06:30:06;98394.59;;;20.40;53.98
64876;BME280;51369;49.862;9.908;2022-08-03T06:32:33;98395.56;;;20.50;54.12
64876;BME280;51369;49.862;9.908;2022-08-03T06:34:59;98389.31;;;20.59;53.93
64876;BME280;51369;49.862;9.908;2022-08-03T06:37:24;98394.91;;;20.69;54.76
64876;BME280;51369;49.862;9.908;2022-08-03T06:39:51;98386.78;;;20.78;54.10
64876;BME280;51369;49.862;9.908;2022-08-03T06:42:17;98397.81;;;20.88;53.64
64876;BME280;51369;49.862;9.908;2022-08-03T06:44:43;98396.91;;;20.99;53.91
64876;BME280;51369;49.862;9.908;2022-08-03T06:47:08;98392.25;;;21.10;54.27
64876;BME280;51369;49.862;9.908;2022-08-03T06:49:34;98402.09;;;21.24;53.94
64876;BME280;51369;49.862;9.908;2022-08-03T06:51:59;98396.69;;;21.34;53.73
64876;BME280;51369;49.862;9.908;2022-08-03T06:54:25;98390.25;;;21.44;53.31
64876;BME280;51369;49.862;9.908;2022-08-03T06:56:50;98395.09;;;21.52;53.39
64876;BME280;51369;49.862;9.908;2022-08-03T06:59:16;98398.03;;;21.60;53.34
64876;BME280;51369;49.862;9.908;2022-08-03T07:01:41;98398.38;;;21.67;53.17
64876;BME280;51369;49.862;9.908;2022-08-03T07:04:07;98405.69;;;21.77;52.57
64876;BME280;51369;49.862;9.908;2022-08-03T07:06:33;98408.47;;;21.87;52.47
64876;BME280;51369;49.862;9.908;2022-08-03T07:08:58;98412.16;;;21.97;52.84
64876;BME280;51369;49.862;9.908;2022-08-03T07:11:24;98400.09;;;22.10;52.42
64876;BME280;51369;49.862;9.908;2022-08-03T07:13:49;98395.25;;;22.23;52.42
64876;BME280;51369;49.862;9.908;2022-08-03T07:16:15;98413.72;;;22.42;52.51
64876;BME280;51369;49.862;9.908;2022-08-03T07:18:40;98402.16;;;22.57;52.04
64876;BME280;51369;49.862;9.908;2022-08-03T07:21:06;98410.75;;;22.73;51.64
64876;BME280;51369;49.862;9.908;2022-08-03T07:23:33;98406.47;;;22.90;50.94
64876;BME280;51369;49.862;9.908;2022-08-03T07:25:59;98405.78;;;23.08;50.79
64876;BME280;51369;49.862;9.908;2022-08-03T07:28:24;98404.34;;;23.23;50.21
64876;BME280;51369;49.862;9.908;2022-08-03T07:30:50;98396.22;;;23.41;50.00
64876;BME280;51369;49.862;9.908;2022-08-03T07:33:15;98397.56;;;23.56;49.81
64876;BME280;51369;49.862;9.908;2022-08-03T07:35:41;98400.00;;;23.78;49.58
64876;BME280;51369;49.862;9.908;2022-08-03T07:38:07;98397.63;;;23.93;49.25
64876;BME280;51369;49.862;9.908;2022-08-03T07:40:32;98404.13;;;24.11;48.73
64876;BME280;51369;49.862;9.908;2022-08-03T07:42:59;98394.03;;;24.29;48.09
64876;BME280;51369;49.862;9.908;2022-08-03T07:45:24;98399.47;;;24.49;48.22
64876;BME280;51369;49.862;9.908;2022-08-03T07:47:50;98403.56;;;24.72;47.79
64876;BME280;51369;49.862;9.908;2022-08-03T07:50:16;98396.47;;;24.97;47.73
64876;BME280;51369;49.862;9.908;2022-08-03T07:52:42;98400.22;;;25.23;47.08
64876;BME280;51369;49.862;9.908;2022-08-03T07:55:15;98401.16;;;25.50;46.92
64876;BME280;51369;49.862;9.908;2022-08-03T07:57:40;98398.16;;;25.79;46.44
64876;BME280;51369;49.862;9.908;2022-08-03T08:00:12;98396.63;;;26.10;45.88
64876;BME280;51369;49.862;9.908;2022-08-03T08:02:39;98395.28;;;26.40;45.58
64876;BME280;51369;49.862;9.908;2022-08-03T08:05:05;98401.16;;;26.71;44.45
64876;BME280;51369;49.862;9.908;2022-08-03T08:07:31;98394.22;;;27.01;43.34
64876;BME280;51369;49.862;9.908;2022-08-03T08:09:56;98391.50;;;27.26;42.43
64876;BME280;51369;49.862;9.908;2022-08-03T08:12:22;98389.09;;;27.39;42.03
64876;BME280;51369;49.862;9.908;2022-08-03T08:14:47;98380.59;;;27.48;42.02
64876;BME280;51369;49.862;9.908;2022-08-03T08:17:13;98389.81;;;27.57;41.51
64876;BME280;51369;49.862;9.908;2022-08-03T08:19:39;98387.94;;;27.66;41.50
64876;BME280;51369;49.862;9.908;2022-08-03T08:22:04;98379.78;;;27.72;40.77
64876;BME280;51369;49.862;9.908;2022-08-03T08:24:31;98382.88;;;27.77;40.32
64876;BME280;51369;49.862;9.908;2022-08-03T08:26:59;98383.56;;;27.87;40.05
64876;BME280;51369;49.862;9.908;2022-08-03T08:29:26;98383.56;;;27.96;39.59
64876;BME280;51369;49.862;9.908;2022-08-03T08:31:51;98377.47;;;28.08;40.00
64876;BME280;51369;49.862;9.908;2022-08-03T08:34:17;98384.41;;;28.12;40.55
64876;BME280;51369;49.862;9.908;2022-08-03T08:36:42;98391.66;;;28.22;39.42
64876;BME280;51369;49.862;9.908;2022-08-03T08:39:08;98381.09;;;28.33;39.34
64876;BME280;51369;49.862;9.908;2022-08-03T08:41:33;98381.94;;;28.42;39.04
64876;BME280;51369;49.862;9.908;2022-08-03T08:44:00;98377.22;;;28.50;38.74
64876;BME280;51369;49.862;9.908;2022-08-03T08:46:25;98379.59;;;28.62;39.49
64876;BME280;51369;49.862;9.908;2022-08-03T08:48:52;98383.91;;;28.72;39.40
64876;BME280;51369;49.862;9.908;2022-08-03T08:51:20;98377.44;;;28.88;38.94
64876;BME280;51369;49.862;9.908;2022-08-03T08:53:52;98376.84;;;29.01;38.70
64876;BME280;51369;49.862;9.908;2022-08-03T08:56:19;98380.09;;;29.12;38.65
64876;BME280;51369;49.862;9.908;2022-08-03T08:58:51;98382.44;;;29.24;38.44
64876;BME280;51369;49.862;9.908;2022-08-03T09:01:17;98386.72;;;29.34;37.79
64876;BME280;51369;49.862;9.908;2022-08-03T09:03:44;98384.06;;;29.41;37.42
64876;BME280;51369;49.862;9.908;2022-08-03T09:06:10;98373.94;;;29.48;37.82
64876;BME280;51369;49.862;9.908;2022-08-03T09:08:35;98375.06;;;29.62;37.97
64876;BME280;51369;49.862;9.908;2022-08-03T09:11:01;98375.97;;;29.77;37.60
64876;BME280;51369;49.862;9.908;2022-08-03T09:13:27;98369.69;;;29.98;37.11
64876;BME280;51369;49.862;9.908;2022-08-03T09:16:09;98377.25;;;30.27;36.62
64876;BME280;51369;49.862;9.908;2022-08-03T09:18:36;98375.22;;;30.58;36.12
64876;BME280;51369;49.862;9.908;2022-08-03T09:21:13;98366.16;;;30.86;35.66
64876;BME280;51369;49.862;9.908;2022-08-03T09:23:46;98361.41;;;31.16;34.98
64876;BME280;51369;49.862;9.908;2022-08-03T09:26:19;98366.38;;;31.42;34.44
64876;BME280;51369;49.862;9.908;2022-08-03T09:28:45;98371.38;;;31.67;35.56
64876;BME280;51369;49.862;9.908;2022-08-03T09:31:11;98368.00;;;31.93;34.73
64876;BME280;51369;49.862;9.908;2022-08-03T09:33:47;98360.06;;;32.18;34.98
64876;BME280;51369;49.862;9.908;2022-08-03T09:36:42;98359.56;;;32.36;33.58
64876;BME280;51369;49.862;9.908;2022-08-03T09:39:12;98362.44;;;32.49;33.19
64876;BME280;51369;49.862;9.908;2022-08-03T09:41:40;98363.19;;;32.64;34.31
64876;BME280;51369;49.862;9.908;2022-08-03T09:44:06;98361.19;;;32.86;34.56
64876;BME280;51369;49.862;9.908;2022-08-03T09:46:49;98360.41;;;33.12;34.06
64876;BME280;51369;49.862;9.908;2022-08-03T09:49:15;98360.09;;;33.35;33.22
64876;BME280;51369;49.862;9.908;2022-08-03T09:51:41;98361.22;;;33.54;33.07
64876;BME280;51369;49.862;9.908;2022-08-03T09:54:07;98352.84;;;33.74;32.92
64876;BME280;51369;49.862;9.908;2022-08-03T09:59:04;98346.22;;;34.14;32.38
64876;BME280;51369;49.862;9.908;2022-08-03T10:01:32;98351.59;;;34.36;31.73
64876;BME280;51369;49.862;9.908;2022-08-03T10:03:58;98342.72;;;34.58;32.96
64876;BME280;51369;49.862;9.908;2022-08-03T10:06:24;98357.53;;;34.79;32.01
64876;BME280;51369;49.862;9.908;2022-08-03T10:09:05;98346.69;;;34.96;31.59
64876;BME280;51369;49.862;9.908;2022-08-03T10:11:31;98338.41;;;35.14;31.28
64876;BME280;51369;49.862;9.908;2022-08-03T10:14:01;98336.22;;;35.22;31.09
64876;BME280;51369;49.862;9.908;2022-08-03T10:16:33;98335.78;;;35.32;31.77
64876;BME280;51369;49.862;9.908;2022-08-03T10:18:59;98329.84;;;35.47;30.47
64876;BME280;51369;49.862;9.908;2022-08-03T10:21:25;98328.50;;;35.56;29.96
64876;BME280;51369;49.862;9.908;2022-08-03T10:23:54;98326.09;;;35.60;29.84
64876;BME280;51369;49.862;9.908;2022-08-03T10:26:24;98314.41;;;35.63;30.10
64876;BME280;51369;49.862;9.908;2022-08-03T10:28:52;98316.72;;;35.72;30.13
64876;BME280;51369;49.862;9.908;2022-08-03T10:31:19;98315.41;;;35.75;29.49
64876;BME280;51369;49.862;9.908;2022-08-03T10:33:48;98314.75;;;35.73;29.30
64876;BME280;51369;49.862;9.908;2022-08-03T10:36:14;98317.13;;;35.76;29.55
64876;BME280;51369;49.862;9.908;2022-08-03T10:38:46;98310.41;;;35.77;29.61
64876;BME280;51369;49.862;9.908;2022-08-03T10:41:19;98308.44;;;35.84;29.83
64876;BME280;51369;49.862;9.908;2022-08-03T10:44:18;98295.44;;;35.90;30.00
64876;BME280;51369;49.862;9.908;2022-08-03T10:46:46;98305.84;;;36.07;30.41
64876;BME280;51369;49.862;9.908;2022-08-03T10:49:19;98295.56;;;36.19;29.53
64876;BME280;51369;49.862;9.908;2022-08-03T10:51:46;98294.66;;;36.26;28.79
64876;BME280;51369;49.862;9.908;2022-08-03T10:54:37;98286.69;;;36.23;29.28
64876;BME280;51369;49.862;9.908;2022-08-03T10:57:49;98289.69;;;36.28;29.52
64876;BME280;51369;49.862;9.908;2022-08-03T11:00:23;98286.97;;;36.39;29.53
64876;BME280;51369;49.862;9.908;2022-08-03T11:03:10;98289.28;;;36.42;29.99
64876;BME280;51369;49.862;9.908;2022-08-03T11:05:46;98287.41;;;36.55;29.14
64876;BME280;51369;49.862;9.908;2022-08-03T11:10:47;98290.22;;;36.55;28.03
64876;BME280;51369;49.862;9.908;2022-08-03T11:13:22;98287.34;;;36.43;28.41
64876;BME280;51369;49.862;9.908;2022-08-03T11:15:51;98287.34;;;36.43;29.28
64876;BME280;51369;49.862;9.908;2022-08-03T11:18:18;98285.94;;;36.52;29.80
64876;BME280;51369;49.862;9.908;2022-08-03T11:23:15;98284.91;;;36.65;28.87
64876;BME280;51369;49.862;9.908;2022-08-03T11:26:10;98295.63;;;36.74;29.17
64876;BME280;51369;49.862;9.908;2022-08-03T11:28:36;98288.06;;;36.93;28.90
64876;BME280;51369;49.862;9.908;2022-08-03T11:34:11;98280.72;;;36.92;28.38
64876;BME280;51369;49.862;9.908;2022-08-03T11:39:41;98279.16;;;36.96;29.34
64876;BME280;51369;49.862;9.908;2022-08-03T11:44:56;98269.75;;;37.02;27.39
64876;BME280;51369;49.862;9.908;2022-08-03T11:47:25;98267.56;;;37.04;28.72
64876;BME280;51369;49.862;9.908;2022-08-03T11:49:56;98261.22;;;37.09;28.63
64876;BME280;51369;49.862;9.908;2022-08-03T11:52:23;98260.66;;;37.19;29.04
64876;BME280;51369;49.862;9.908;2022-08-03T11:54:50;98267.13;;;37.37;29.88
64876;BME280;51369;49.862;9.908;2022-08-03T11:57:31;98263.25;;;37.62;28.67
64876;BME280;51369;49.862;9.908;2022-08-03T11:59:57;98254.16;;;37.90;28.73
64876;BME280;51369;49.862;9.908;2022-08-03T12:02:23;98252.94;;;38.09;27.98
64876;BME280;51369;49.862;9.908;2022-08-03T12:04:58;98248.66;;;38.06;27.79
64876;BME280;51369;49.862;9.908;2022-08-03T12:07:28;98240.56;;;38.10;27.65
64876;BME280;51369;49.862;9.908;2022-08-03T12:10:08;98231.72;;;38.06;27.35
64876;BME280;51369;49.862;9.908;2022-08-03T12:12:35;98244.84;;;38.13;28.11
64876;BME280;51369;49.862;9.908;2022-08-03T12:15:02;98240.56;;;38.22;27.81
64876;BME280;51369;49.862;9.908;2022-08-03T12:17:36;98231.34;;;38.26;26.96
64876;BME280;51369;49.862;9.908;2022-08-03T12:20:04;98228.66;;;38.31;27.36
64876;BME280;51369;49.862;9.908;2022-08-03T12:22:34;98224.38;;;38.29;26.96
64876;BME280;51369;49.862;9.908;2022-08-03T12:25:02;98225.84;;;38.20;26.37
64876;BME280;51369;49.862;9.908;2022-08-03T12:27:29;98222.53;;;38.11;26.75
64876;BME280;51369;49.862;9.908;2022-08-03T12:29:55;98212.38;;;38.10;27.52
64876;BME280;51369;49.862;9.908;2022-08-03T12:32:22;98219.72;;;38.23;27.99
64876;BME280;51369;49.862;9.908;2022-08-03T12:34:49;98214.53;;;38.43;27.89
64876;BME280;51369;49.862;9.908;2022-08-03T12:37:19;98219.53;;;38.64;27.95
64876;BME280;51369;49.862;9.908;2022-08-03T12:39:52;98216.53;;;38.83;27.15
64876;BME280;51369;49.862;9.908;2022-08-03T12:42:18;98224.22;;;38.99;26.21
64876;BME280;51369;49.862;9.908;2022-08-03T12:44:44;98218.56;;;38.99;26.52
64876;BME280;51369;49.862;9.908;2022-08-03T12:47:15;98209.66;;;38.90;26.69
64876;BME280;51369;49.862;9.908;2022-08-03T12:49:45;98215.19;;;38.85;26.97
64876;BME280;51369;49.862;9.908;2022-08-03T12:52:11;98211.59;;;38.90;26.86
64876;BME280;51369;49.862;9.908;2022-08-03T12:54:36;98213.94;;;38.93;27.09
64876;BME280;51369;49.862;9.908;2022-08-03T12:57:10;98212.22;;;38.92;26.86
64876;BME280;51369;49.862;9.908;2022-08-03T12:59:39;98199.41;;;39.01;26.92
64876;BME280;51369;49.862;9.908;2022-08-03T13:02:18;98196.72;;;39.06;25.89
64876;BME280;51369;49.862;9.908;2022-08-03T13:04:45;98194.00;;;39.11;25.95
64876;BME280;51369;49.862;9.908;2022-08-03T13:07:12;98185.44;;;39.06;26.21
64876;BME280;51369;49.862;9.908;2022-08-03T13:09:53;98186.28;;;39.07;26.19
64876;BME280;51369;49.862;9.908;2022-08-03T13:12:23;98193.50;;;39.14;25.98
64876;BME280;51369;49.862;9.908;2022-08-03T13:14:57;98186.97;;;39.14;26.43
64876;BME280;51369;49.862;9.908;2022-08-03T13:17:24;98190.09;;;39.29;27.50
64876;BME280;51369;49.862;9.908;2022-08-03T13:19:50;98193.94;;;39.23;25.84
64876;BME280;51369;49.862;9.908;2022-08-03T13:22:20;98190.75;;;39.19;26.76
64876;BME280;51369;49.862;9.908;2022-08-03T13:24:49;98199.69;;;39.28;26.52
64876;BME280;51369;49.862;9.908;2022-08-03T13:27:15;98188.03;;;39.24;25.57
64876;BME280;51369;49.862;9.908;2022-08-03T13:29:41;98191.63;;;39.20;25.62
64876;BME280;51369;49.862;9.908;2022-08-03T13:32:08;98180.56;;;39.18;26.66